createdAt,value
2019-04-26T00:00:32.127Z,89.84
2019-04-26T00:01:32.103Z,90.14
2019-04-26T00:02:32.819Z,89.73
2019-04-26T00:03:32.067Z,89.63
2019-04-26T00:04:32.055Z,89.84
2019-04-26T00:05:35.051Z,90.04
2019-04-26T00:06:33.041Z,89.63
2019-04-26T00:07:32.051Z,90.75
2019-04-26T00:08:32.011Z,90.75
2019-04-26T00:09:31.994Z,89.94
2019-04-26T00:10:32.007Z,89.94
2019-04-26T00:11:32.011Z,90.45
2019-04-26T00:12:31.998Z,90.55
2019-04-26T00:13:32.006Z,89.94
2019-04-26T00:14:31.946Z,89.98
2019-04-26T00:15:31.943Z,89.63
2019-04-26T00:16:31.937Z,89.63
2019-04-26T00:17:31.963Z,89.63
2019-04-26T00:18:31.906Z,89.23
2019-04-26T00:19:31.901Z,89.43
2019-04-26T00:20:31.944Z,89.53
2019-04-26T00:21:31.875Z,89.43
2019-04-26T00:22:31.902Z,89.53
2019-04-26T00:23:31.842Z,89.43
2019-04-26T00:24:31.833Z,89.59
2019-04-26T00:25:31.847Z,88.82
2019-04-26T00:26:31.816Z,89.53
2019-04-26T00:27:31.855Z,89.43
2019-04-26T00:28:31.784Z,89.02
2019-04-26T00:29:31.800Z,89.32
2019-04-26T00:30:31.768Z,89.73
2019-04-26T00:31:31.757Z,88.98
2019-04-26T00:32:31.788Z,89.23
2019-04-26T00:33:31.730Z,89.12
2019-04-26T00:34:31.727Z,89.23
2019-04-26T00:35:31.752Z,88.71
2019-04-26T00:36:31.700Z,88.78
2019-04-26T00:37:31.718Z,89.02
2019-04-26T00:38:31.681Z,88.82
2019-04-26T00:39:31.661Z,89.12
2019-04-26T00:40:31.679Z,89.28
2019-04-26T00:41:31.640Z,88.82
2019-04-26T00:42:31.691Z,88.82
2019-04-26T00:43:31.635Z,89.08
2019-04-26T00:44:31.625Z,89.53
2019-04-26T00:45:31.615Z,89.53
2019-04-26T00:46:31.595Z,89.43
2019-04-26T00:47:31.640Z,89.53
2019-04-26T00:48:31.626Z,89.94
2019-04-26T00:49:43.009Z,89.63
2019-04-26T00:50:32.555Z,89.94
2019-04-26T00:51:31.527Z,89.94
2019-04-26T00:52:31.591Z,90.45
2019-04-26T00:53:31.575Z,90.45
2019-04-26T00:54:31.501Z,90.75
2019-04-26T00:55:31.500Z,90.55
2019-04-26T00:56:31.465Z,90.86
2019-04-26T00:57:31.507Z,90.29
2019-04-26T00:58:33.528Z,90.80
2019-04-26T00:59:31.441Z,90.75
2019-04-26T01:00:31.425Z,90.66
2019-04-26T01:01:31.444Z,90.75
2019-04-26T01:02:32.326Z,90.70
2019-04-26T01:03:31.400Z,90.75
2019-04-26T01:04:31.393Z,90.75
2019-04-26T01:05:31.375Z,91.82
2019-04-26T01:06:31.365Z,91.52
2019-04-26T01:07:31.401Z,91.78
2019-04-26T01:08:31.369Z,91.78
2019-04-26T01:09:31.341Z,91.82
2019-04-26T01:10:31.321Z,91.41
2019-04-26T01:11:31.315Z,91.31
2019-04-26T01:12:31.322Z,91.41
2019-04-26T01:13:31.293Z,91.92
2019-04-26T01:14:31.273Z,91.41
2019-04-26T01:15:31.261Z,91.72
2019-04-26T01:16:31.274Z,91.41
2019-04-26T01:17:31.269Z,91.41
2019-04-26T01:18:31.227Z,91.37
2019-04-26T01:19:31.221Z,91.61
2019-04-26T01:20:31.207Z,91.92
2019-04-26T01:21:31.199Z,91.92
2019-04-26T01:22:31.644Z,92.33
2019-04-26T01:23:31.211Z,92.13
2019-04-26T01:24:31.177Z,91.41
2019-04-26T01:25:31.142Z,91.82
2019-04-26T01:26:31.180Z,91.37
2019-04-26T01:27:31.174Z,91.82
2019-04-26T01:28:31.129Z,92.02
2019-04-26T01:29:31.114Z,91.98
2019-04-26T01:30:31.124Z,91.72
2019-04-26T01:31:31.095Z,92.13
2019-04-26T01:32:31.102Z,91.92
2019-04-26T01:33:31.085Z,91.72
2019-04-26T01:34:31.090Z,91.52
2019-04-26T01:35:31.045Z,91.61
2019-04-26T01:36:31.048Z,91.52
2019-04-26T01:37:31.057Z,91.82
2019-04-26T01:38:31.892Z,91.92
2019-04-26T01:39:32.014Z,91.92
2019-04-26T01:40:31.004Z,91.72
2019-04-26T01:41:30.991Z,91.92
2019-04-26T01:42:30.997Z,91.92
2019-04-26T01:43:30.950Z,91.72
2019-04-26T01:44:30.933Z,91.92
2019-04-26T01:45:32.062Z,91.61
2019-04-26T01:46:31.057Z,91.92
2019-04-26T01:47:30.930Z,91.20
2019-04-26T01:48:31.394Z,92.13
2019-04-26T01:49:30.893Z,91.52
2019-04-26T01:50:31.678Z,91.72
2019-04-26T01:51:30.924Z,91.61
2019-04-26T01:52:31.902Z,91.72
2019-04-26T01:53:30.842Z,91.20
2019-04-26T01:54:31.871Z,91.20
2019-04-26T01:55:31.261Z,91.11
2019-04-26T01:56:31.390Z,91.72
2019-04-26T01:57:31.640Z,91.72
2019-04-26T01:58:31.360Z,90.74
2019-04-26T01:59:31.510Z,91.31
2019-04-26T02:00:31.704Z,91.52
2019-04-26T02:01:31.608Z,91.52
2019-04-26T02:02:32.005Z,91.41
2019-04-26T02:03:31.822Z,91.11
2019-04-26T02:04:30.705Z,91.56
2019-04-26T02:05:30.748Z,91.86
2019-04-26T02:06:33.534Z,91.61
2019-04-26T02:07:30.724Z,91.46
2019-04-26T02:08:30.709Z,91.25
2019-04-26T02:09:30.682Z,91.66
2019-04-26T02:10:30.775Z,91.66
2019-04-26T02:11:30.837Z,91.25
2019-04-26T02:12:30.865Z,91.46
2019-04-26T02:13:30.992Z,92.17
2019-04-26T02:14:31.075Z,91.66
2019-04-26T02:15:31.263Z,91.56
2019-04-26T02:16:31.178Z,91.56
2019-04-26T02:17:31.437Z,91.66
2019-04-26T02:18:31.517Z,91.96
2019-04-26T02:19:31.556Z,91.96
2019-04-26T02:20:31.662Z,91.96
2019-04-26T02:21:30.562Z,91.56
2019-04-26T02:22:30.527Z,92.58
2019-04-26T02:23:30.526Z,91.46
2019-04-26T02:24:30.493Z,91.56
2019-04-26T02:25:30.505Z,91.96
2019-04-26T02:26:30.463Z,91.46
2019-04-26T02:27:30.486Z,91.56
2019-04-26T02:28:30.470Z,91.56
2019-04-26T02:29:30.649Z,91.46
2019-04-26T02:30:31.243Z,91.46
2019-04-26T02:31:31.427Z,91.96
2019-04-26T02:32:31.370Z,91.56
2019-04-26T02:33:31.784Z,92.17
2019-04-26T02:34:31.853Z,91.46
2019-04-26T02:35:32.086Z,91.66
2019-04-26T02:36:47.932Z,91.66
2019-04-26T02:37:32.751Z,91.96
2019-04-26T02:38:31.453Z,91.66
2019-04-26T02:39:32.069Z,91.96
2019-04-26T02:40:31.674Z,92.07
2019-04-26T02:41:32.028Z,92.07
2019-04-26T02:42:31.076Z,91.66
2019-04-26T02:43:32.099Z,91.66
2019-04-26T02:44:31.338Z,91.86
2019-04-26T02:45:32.277Z,91.96
2019-04-26T02:46:31.200Z,91.76
2019-04-26T02:47:30.933Z,91.96
2019-04-26T02:48:30.874Z,91.96
2019-04-26T02:49:31.275Z,91.96
2019-04-26T02:50:31.189Z,91.86
2019-04-26T02:51:32.334Z,91.66
2019-04-26T02:52:32.013Z,91.56
2019-04-26T02:53:31.651Z,91.66
2019-04-26T02:54:31.564Z,91.56
2019-04-26T02:55:31.582Z,91.96
2019-04-26T02:56:31.478Z,91.05
2019-04-26T02:57:31.495Z,90.74
2019-04-26T02:58:31.563Z,90.84
2019-04-26T02:59:31.732Z,90.74
2019-04-26T03:00:31.605Z,90.64
2019-04-26T03:01:32.406Z,90.74
2019-04-26T03:02:31.141Z,90.53
2019-04-26T03:03:31.655Z,90.43
2019-04-26T03:04:36.442Z,90.43
2019-04-26T03:05:31.693Z,90.84
2019-04-26T03:06:30.557Z,90.74
2019-04-26T03:07:32.093Z,90.84
2019-04-26T03:08:31.351Z,90.94
2019-04-26T03:09:31.228Z,90.74
2019-04-26T03:10:31.836Z,90.74
2019-04-26T03:11:31.468Z,90.64
2019-04-26T03:12:32.019Z,90.78
2019-04-26T03:13:32.014Z,90.84
2019-04-26T03:14:32.497Z,91.05
2019-04-26T03:15:30.329Z,90.64
2019-04-26T03:16:32.649Z,90.53
2019-04-26T03:17:30.468Z,90.53
2019-04-26T03:18:31.681Z,90.53
2019-04-26T03:19:31.463Z,90.43
2019-04-26T03:20:29.873Z,90.43
2019-04-26T03:21:32.017Z,90.74
2019-04-26T03:22:29.848Z,90.74
2019-04-26T03:23:45.948Z,90.23
2019-04-26T03:24:32.945Z,90.68
2019-04-26T03:25:32.656Z,90.78
2019-04-26T03:26:31.560Z,90.99
2019-04-26T03:27:32.708Z,90.84
2019-04-26T03:28:32.659Z,90.43
2019-04-26T03:29:31.875Z,90.84
2019-04-26T03:30:29.799Z,90.99
2019-04-26T03:31:29.745Z,90.53
2019-04-26T03:32:29.751Z,90.88
2019-04-26T03:33:29.759Z,90.88
2019-04-26T03:34:29.714Z,90.47
2019-04-26T03:35:29.731Z,90.78
2019-04-26T03:36:29.713Z,91.19
2019-04-26T03:37:29.706Z,91.85
2019-04-26T03:38:29.725Z,91.74
2019-04-26T03:39:29.682Z,91.74
2019-04-26T03:40:29.752Z,90.88
2019-04-26T03:41:29.631Z,90.99
2019-04-26T03:42:29.665Z,91.19
2019-04-26T03:43:29.618Z,91.19
2019-04-26T03:44:29.625Z,91.91
2019-04-26T03:45:29.637Z,91.60
2019-04-26T03:46:29.629Z,91.70
2019-04-26T03:47:29.580Z,91.50
2019-04-26T03:48:29.560Z,91.80
2019-04-26T03:49:29.598Z,91.80
2019-04-26T03:50:29.568Z,91.80
2019-04-26T03:51:29.552Z,91.70
2019-04-26T03:52:29.509Z,91.60
2019-04-26T03:53:29.499Z,91.91
2019-04-26T03:54:29.516Z,91.64
2019-04-26T03:55:29.482Z,91.50
2019-04-26T03:56:31.390Z,91.70
2019-04-26T03:57:29.492Z,91.74
2019-04-26T03:58:29.470Z,91.29
2019-04-26T03:59:29.454Z,91.60
2019-04-26T04:00:29.436Z,91.39
2019-04-26T04:01:29.508Z,91.50
2019-04-26T04:02:29.416Z,91.33
2019-04-26T04:03:29.416Z,91.60
2019-04-26T04:04:29.407Z,91.91
2019-04-26T04:05:29.400Z,91.50
2019-04-26T04:06:29.429Z,91.70
2019-04-26T04:07:39.529Z,92.25
2019-04-26T04:08:30.362Z,92.01
2019-04-26T04:09:29.321Z,92.21
2019-04-26T04:10:29.314Z,92.01
2019-04-26T04:11:29.349Z,91.70
2019-04-26T04:12:29.294Z,91.50
2019-04-26T04:13:29.314Z,92.21
2019-04-26T04:14:29.285Z,91.70
2019-04-26T04:15:29.268Z,92.11
2019-04-26T04:16:29.326Z,92.05
2019-04-26T04:17:29.359Z,91.54
2019-04-26T04:18:29.232Z,92.72
2019-04-26T04:19:29.225Z,92.42
2019-04-26T04:20:29.211Z,92.25
2019-04-26T04:21:29.231Z,92.66
2019-04-26T04:22:29.866Z,93.07
2019-04-26T04:23:29.180Z,93.48
2019-04-26T04:24:29.167Z,93.38
2019-04-26T04:25:29.183Z,94.10
2019-04-26T04:26:29.202Z,94.60
2019-04-26T04:27:29.163Z,94.40
2019-04-26T04:28:29.142Z,94.55
2019-04-26T04:29:40.311Z,94.60
2019-04-26T04:30:29.226Z,95.12
2019-04-26T04:31:29.096Z,94.81
2019-04-26T04:32:29.127Z,95.67
2019-04-26T04:33:29.077Z,95.88
2019-04-26T04:34:29.186Z,95.37
2019-04-26T04:35:29.065Z,96.39
2019-04-26T04:36:29.091Z,96.49
2019-04-26T04:37:29.119Z,96.29
2019-04-26T04:38:29.053Z,95.67
2019-04-26T04:39:29.144Z,96.19
2019-04-26T04:40:58.281Z,96.39
2019-04-26T04:41:29.183Z,96.59
2019-04-26T04:42:29.130Z,96.59
2019-04-26T04:43:29.126Z,96.19
2019-04-26T04:44:29.089Z,96.08
2019-04-26T04:45:28.949Z,96.19
2019-04-26T04:46:30.026Z,96.39
2019-04-26T04:47:31.331Z,96.29
2019-04-26T04:48:28.942Z,96.49
2019-04-26T04:49:28.913Z,96.39
2019-04-26T04:50:30.156Z,96.80
2019-04-26T04:51:29.038Z,96.80
2019-04-26T04:52:28.906Z,96.80
2019-04-26T04:53:28.927Z,96.80
2019-04-26T04:54:28.841Z,96.59
2019-04-26T04:55:28.850Z,96.29
2019-04-26T04:56:35.023Z,97.00
2019-04-26T04:57:28.867Z,96.59
2019-04-26T04:58:28.811Z,97.21
2019-04-26T04:59:28.845Z,96.29
2019-04-26T05:00:28.785Z,96.80
2019-04-26T05:01:28.923Z,97.11
2019-04-26T05:02:28.759Z,96.39
2019-04-26T05:03:28.740Z,96.59
2019-04-26T05:04:28.913Z,96.80
2019-04-26T05:05:28.715Z,96.59
2019-04-26T05:06:28.883Z,96.19
2019-04-26T05:07:28.721Z,96.29
2019-04-26T05:08:28.733Z,96.91
2019-04-26T05:09:28.713Z,96.33
2019-04-26T05:10:28.671Z,96.64
2019-04-26T05:11:28.667Z,96.44
2019-04-26T05:12:28.670Z,96.64
2019-04-26T05:13:28.639Z,96.64
2019-04-26T05:14:28.665Z,96.54
2019-04-26T05:15:29.374Z,96.33
2019-04-26T05:16:28.617Z,96.23
2019-04-26T05:17:28.645Z,96.95
2019-04-26T05:18:28.596Z,96.84
2019-04-26T05:19:28.598Z,96.64
2019-04-26T05:20:28.965Z,96.84
2019-04-26T05:21:28.560Z,96.84
2019-04-26T05:22:28.538Z,96.95
2019-04-26T05:23:28.523Z,97.05
2019-04-26T05:24:28.613Z,97.15
2019-04-26T05:25:28.505Z,97.15
2019-04-26T05:26:28.502Z,96.95
2019-04-26T05:27:28.475Z,96.95
2019-04-26T05:28:28.496Z,96.54
2019-04-26T05:29:28.456Z,96.69
2019-04-26T05:30:28.480Z,96.99
2019-04-26T05:31:28.435Z,96.84
2019-04-26T05:32:28.429Z,97.05
2019-04-26T05:33:28.469Z,96.84
2019-04-26T05:34:28.399Z,97.20
2019-04-26T05:35:28.439Z,97.20
2019-04-26T05:36:28.378Z,98.02
2019-04-26T05:37:28.378Z,97.40
2019-04-26T05:38:28.359Z,97.81
2019-04-26T05:39:28.383Z,98.22
2019-04-26T05:40:28.343Z,98.12
2019-04-26T05:41:29.879Z,98.02
2019-04-26T05:42:28.314Z,97.30
2019-04-26T05:43:28.307Z,98.02
2019-04-26T05:44:28.293Z,98.12
2019-04-26T05:45:28.300Z,98.12
2019-04-26T05:46:28.336Z,98.12
2019-04-26T05:47:28.262Z,98.02
2019-04-26T05:48:28.247Z,97.91
2019-04-26T05:49:28.239Z,97.71
2019-04-26T05:50:28.232Z,97.81
2019-04-26T05:51:28.234Z,98.02
2019-04-26T05:52:28.240Z,99.25
2019-04-26T05:53:28.197Z,99.04
2019-04-26T05:54:28.190Z,98.53
2019-04-26T05:55:28.174Z,98.74
2019-04-26T05:56:28.163Z,98.12
2019-04-26T05:57:28.230Z,99.04
2019-04-26T05:58:28.155Z,98.74
2019-04-26T05:59:28.131Z,99.04
2019-04-26T06:00:28.122Z,98.83
2019-04-26T06:01:28.117Z,98.63
2019-04-26T06:02:28.099Z,98.74
2019-04-26T06:03:28.142Z,98.94
2019-04-26T06:04:28.082Z,98.02
2019-04-26T06:05:28.066Z,98.22
2019-04-26T06:06:28.055Z,98.22
2019-04-26T06:07:28.048Z,98.43
2019-04-26T06:08:31.550Z,99.04
2019-04-26T06:09:28.046Z,98.74
2019-04-26T06:10:28.012Z,98.43
2019-04-26T06:11:27.996Z,98.74
2019-04-26T06:12:27.992Z,98.94
2019-04-26T06:13:28.080Z,98.74
2019-04-26T06:14:27.968Z,98.74
2019-04-26T06:15:27.999Z,99.04
2019-04-26T06:16:27.948Z,99.04
2019-04-26T06:17:27.944Z,98.83
2019-04-26T06:18:27.973Z,99.25
2019-04-26T06:19:27.945Z,98.22
2019-04-26T06:20:27.911Z,98.22
2019-04-26T06:21:27.942Z,98.74
2019-04-26T06:22:27.888Z,98.12
2019-04-26T06:23:27.873Z,98.02
2019-04-26T06:24:27.899Z,98.22
2019-04-26T06:25:27.850Z,98.33
2019-04-26T06:26:27.870Z,98.63
2019-04-26T06:27:27.833Z,98.83
2019-04-26T06:28:27.823Z,98.74
2019-04-26T06:29:27.850Z,98.69
2019-04-26T06:30:27.801Z,98.74
2019-04-26T06:31:27.785Z,99.04
2019-04-26T06:32:27.847Z,98.74
2019-04-26T06:33:27.779Z,98.63
2019-04-26T06:34:27.749Z,98.74
2019-04-26T06:35:27.770Z,99.04
2019-04-26T06:36:27.741Z,98.63
2019-04-26T06:37:27.720Z,98.83
2019-04-26T06:38:27.728Z,98.53
2019-04-26T06:39:27.698Z,98.74
2019-04-26T06:40:27.717Z,98.63
2019-04-26T06:41:27.676Z,98.83
2019-04-26T06:42:27.663Z,99.04
2019-04-26T06:43:27.656Z,98.79
2019-04-26T06:44:27.693Z,98.99
2019-04-26T06:45:28.388Z,98.22
2019-04-26T06:46:27.626Z,98.94
2019-04-26T06:47:27.616Z,99.20
2019-04-26T06:48:27.603Z,98.69
2019-04-26T06:49:27.593Z,98.22
2019-04-26T06:50:27.610Z,98.18
2019-04-26T06:51:27.970Z,98.58
2019-04-26T06:52:27.564Z,97.77
2019-04-26T06:53:27.639Z,97.91
2019-04-26T06:54:27.536Z,98.07
2019-04-26T06:55:27.527Z,97.56
2019-04-26T06:56:27.562Z,98.38
2019-04-26T06:57:27.508Z,97.87
2019-04-26T06:58:27.489Z,97.97
2019-04-26T06:59:36.120Z,97.15
2019-04-26T07:00:28.478Z,97.56
2019-04-26T07:01:28.400Z,97.21
2019-04-26T07:02:27.496Z,97.52
2019-04-26T07:03:27.445Z,97.11
2019-04-26T07:04:27.441Z,97.47
2019-04-26T07:05:27.419Z,96.96
2019-04-26T07:06:34.892Z,96.45
2019-04-26T07:07:28.393Z,95.84
2019-04-26T07:08:27.402Z,96.55
2019-04-26T07:09:27.375Z,95.84
2019-04-26T07:10:27.365Z,96.25
2019-04-26T07:11:27.406Z,96.34
2019-04-26T07:12:27.341Z,96.75
2019-04-26T07:13:27.329Z,97.16
2019-04-26T07:14:27.339Z,96.71
2019-04-26T07:15:28.735Z,96.71
2019-04-26T07:16:27.326Z,96.10
2019-04-26T07:17:28.515Z,96.34
2019-04-26T07:18:27.280Z,96.75
2019-04-26T07:19:27.259Z,97.22
2019-04-26T07:20:27.273Z,96.51
2019-04-26T07:21:27.236Z,96.75
2019-04-26T07:22:35.300Z,96.55
2019-04-26T07:23:28.237Z,96.55
2019-04-26T07:24:27.205Z,96.34
2019-04-26T07:25:27.194Z,96.75
2019-04-26T07:26:27.181Z,96.14
2019-04-26T07:27:27.310Z,96.86
2019-04-26T07:28:27.239Z,96.39
2019-04-26T07:29:27.153Z,96.29
2019-04-26T07:30:27.221Z,96.14
2019-04-26T07:31:27.130Z,96.25
2019-04-26T07:32:27.157Z,95.63
2019-04-26T07:33:27.135Z,95.63
2019-04-26T07:34:27.096Z,96.10
2019-04-26T07:35:27.079Z,96.14
2019-04-26T07:36:27.074Z,94.81
2019-04-26T07:37:27.068Z,95.02
2019-04-26T07:38:27.129Z,94.92
2019-04-26T07:39:27.094Z,95.02
2019-04-26T07:40:27.026Z,94.87
2019-04-26T07:41:27.017Z,94.20
2019-04-26T07:42:27.005Z,94.60
2019-04-26T07:43:27.016Z,94.36
2019-04-26T07:44:26.984Z,94.15
2019-04-26T07:45:27.010Z,93.44
2019-04-26T07:46:26.956Z,93.95
2019-04-26T07:47:26.948Z,93.99
2019-04-26T07:48:27.002Z,93.85
2019-04-26T07:49:26.930Z,94.26
2019-04-26T07:50:26.980Z,91.33
2019-04-26T07:51:26.935Z,92.52
2019-04-26T07:52:26.895Z,93.03
2019-04-26T07:53:26.892Z,92.66
2019-04-26T07:54:26.965Z,92.87
2019-04-26T07:55:26.869Z,92.62
2019-04-26T07:56:26.853Z,93.03
2019-04-26T07:57:26.853Z,92.66
2019-04-26T07:58:26.833Z,92.66
2019-04-26T07:59:26.841Z,93.18
2019-04-26T08:00:27.406Z,93.18
2019-04-26T08:01:26.796Z,92.56
2019-04-26T08:02:26.785Z,93.03
2019-04-26T08:03:26.777Z,93.18
2019-04-26T08:04:29.475Z,92.77
2019-04-26T08:05:27.083Z,93.74
2019-04-26T08:06:26.743Z,93.69
2019-04-26T08:07:26.734Z,93.07
2019-04-26T08:08:26.720Z,92.87
2019-04-26T08:09:27.674Z,92.66
2019-04-26T08:10:26.725Z,93.28
2019-04-26T08:11:26.708Z,92.62
2019-04-26T08:12:26.678Z,93.33
2019-04-26T08:13:26.663Z,93.03
2019-04-26T08:14:26.655Z,92.93
2019-04-26T08:15:26.670Z,92.52
2019-04-26T08:16:26.635Z,92.36
2019-04-26T08:17:26.645Z,92.77
2019-04-26T08:18:26.610Z,93.54
2019-04-26T08:19:26.598Z,92.93
2019-04-26T08:20:28.259Z,92.21
2019-04-26T08:21:32.401Z,91.50
2019-04-26T08:22:28.722Z,91.50
2019-04-26T08:23:41.187Z,91.91
2019-04-26T08:24:28.377Z,92.52
2019-04-26T08:25:26.540Z,91.91
2019-04-26T08:26:27.412Z,91.60
2019-04-26T08:27:26.507Z,92.01
2019-04-26T08:28:26.540Z,91.70
2019-04-26T08:29:26.498Z,91.50
2019-04-26T08:30:26.476Z,91.60
2019-04-26T08:31:29.878Z,91.70
2019-04-26T08:32:28.207Z,91.19
2019-04-26T08:33:27.453Z,91.29
2019-04-26T08:34:29.790Z,91.50
2019-04-26T08:35:27.459Z,91.09
2019-04-26T08:36:27.148Z,91.39
2019-04-26T08:37:26.399Z,91.29
2019-04-26T08:38:26.403Z,90.58
2019-04-26T08:39:32.402Z,91.25
2019-04-26T08:40:31.010Z,90.84
2019-04-26T08:41:29.863Z,91.35
2019-04-26T08:42:26.387Z,90.64
2019-04-26T08:43:27.316Z,90.74
2019-04-26T08:44:26.329Z,90.12
2019-04-26T08:45:26.311Z,90.74
2019-04-26T08:46:32.323Z,89.41
2019-04-26T08:47:27.313Z,89.61
2019-04-26T08:48:27.746Z,89.47
2019-04-26T08:49:26.313Z,89.98
2019-04-26T08:50:26.251Z,89.94
2019-04-26T08:51:31.931Z,89.43
2019-04-26T08:52:26.257Z,88.96
2019-04-26T08:53:28.213Z,88.35
2019-04-26T08:54:26.307Z,89.31
2019-04-26T08:55:26.339Z,89.20
2019-04-26T08:58:05.844Z,88.51
2019-04-26T08:59:05.931Z,88.43
2019-04-26T09:00:05.970Z,87.82
2019-04-26T09:01:05.851Z,86.45
2019-04-26T09:02:05.950Z,86.61
2019-04-26T09:03:11.621Z,85.80
2019-04-26T09:04:06.812Z,85.39
2019-04-26T09:05:05.803Z,85.60
2019-04-26T09:06:05.836Z,83.90
2019-04-26T09:07:05.746Z,85.77
2019-04-26T09:08:05.856Z,86.08
2019-04-26T09:09:05.760Z,85.84
2019-04-26T09:10:11.241Z,85.53
2019-04-26T09:11:23.722Z,86.10
2019-04-26T09:12:08.180Z,85.45
2019-04-26T09:13:05.793Z,84.19
2019-04-26T09:14:05.975Z,82.74
2019-04-26T09:15:05.665Z,82.78
2019-04-26T09:16:05.700Z,82.78
2019-04-26T09:17:45.452Z,83.70
2019-04-26T09:18:06.101Z,85.22
2019-04-26T09:19:05.629Z,83.63
2019-04-26T09:20:07.845Z,85.16
2019-04-26T09:21:05.589Z,84.25
2019-04-26T09:22:12.724Z,85.33
2019-04-26T09:23:06.672Z,85.53
2019-04-26T09:24:08.172Z,84.27
2019-04-26T09:25:05.717Z,83.65
2019-04-26T09:26:08.678Z,82.78
2019-04-26T09:27:09.674Z,83.90
2019-04-26T09:28:05.524Z,82.47
2019-04-26T09:29:05.534Z,83.80
2019-04-26T09:30:06.348Z,84.27
2019-04-26T09:31:05.488Z,82.88
2019-04-26T09:32:05.546Z,83.35
2019-04-26T09:33:05.522Z,82.90
2019-04-26T09:34:06.373Z,82.23
2019-04-26T09:35:05.456Z,81.72
2019-04-26T09:36:05.481Z,81.72
2019-04-26T09:37:05.447Z,81.52
2019-04-26T09:38:05.405Z,82.98
2019-04-26T09:39:08.278Z,83.04
2019-04-26T09:40:10.560Z,82.90
2019-04-26T09:41:06.500Z,81.44
2019-04-26T09:42:13.173Z,81.40
2019-04-26T09:43:05.353Z,79.61
2019-04-26T09:44:05.334Z,81.95
2019-04-26T09:45:05.402Z,80.73
2019-04-26T09:46:06.001Z,80.52
2019-04-26T09:47:07.177Z,78.39
2019-04-26T09:48:05.295Z,79.06
2019-04-26T09:49:07.017Z,78.73
2019-04-26T09:50:05.275Z,80.40
2019-04-26T09:51:05.332Z,82.07
2019-04-26T09:52:05.430Z,81.56
2019-04-26T09:53:05.253Z,81.82
2019-04-26T09:54:05.238Z,81.88
2019-04-26T09:55:05.261Z,81.58
2019-04-26T09:56:05.238Z,81.88
2019-04-26T09:57:07.970Z,81.38
2019-04-26T09:58:05.303Z,81.68
2019-04-26T09:59:05.601Z,81.72
2019-04-26T10:00:05.161Z,81.93
2019-04-26T10:01:06.311Z,82.84
2019-04-26T10:02:05.924Z,82.09
2019-04-26T10:03:05.416Z,82.50
2019-04-26T10:04:05.278Z,81.38
2019-04-26T10:05:08.063Z,79.91
2019-04-26T10:06:08.196Z,80.22
2019-04-26T10:07:33.431Z,79.81
2019-04-26T10:08:08.240Z,80.11
2019-04-26T10:09:06.152Z,80.11
2019-04-26T10:10:05.077Z,80.02
2019-04-26T10:11:05.769Z,80.02
2019-04-26T10:23:01.730Z,77.53
2019-04-26T10:24:01.039Z,79.30
2019-04-26T10:25:06.587Z,78.96
2019-04-26T10:26:01.952Z,78.11
2019-04-26T10:27:03.355Z,77.26
2019-04-26T10:28:39.981Z,76.61
2019-04-26T10:29:00.835Z,75.94
2019-04-26T10:30:07.820Z,77.26
2019-04-26T10:31:01.809Z,77.40
2019-04-26T10:32:00.939Z,78.21
2019-04-26T10:35:02.374Z,76.75
2019-04-26T10:36:03.732Z,77.50
2019-04-26T10:37:06.051Z,78.62
2019-04-26T10:38:38.323Z,77.40
2019-04-26T10:39:02.309Z,77.64
2019-04-26T10:40:02.287Z,79.20
2019-04-26T10:41:02.264Z,80.11
2019-04-26T10:42:02.325Z,79.16
2019-04-26T10:43:16.937Z,78.15
2019-04-26T10:44:02.286Z,77.13
2019-04-26T10:45:02.235Z,78.19
2019-04-26T10:46:02.215Z,78.80
2019-04-26T10:47:04.331Z,78.19
2019-04-26T10:48:02.228Z,78.19
2019-04-26T10:49:08.997Z,78.39
2019-04-26T10:50:03.212Z,78.28
2019-04-26T10:51:03.210Z,78.80
2019-04-26T10:52:02.168Z,79.20
2019-04-26T10:53:02.311Z,78.96
2019-04-26T10:54:05.940Z,79.10
2019-04-26T10:55:03.104Z,79.41
2019-04-26T10:56:02.099Z,80.32
2019-04-26T10:57:02.171Z,79.91
2019-04-26T10:58:05.472Z,79.20
2019-04-26T10:59:02.067Z,79.00
2019-04-26T11:00:02.061Z,79.00
2019-04-26T11:01:03.824Z,78.42
2019-04-26T11:02:02.026Z,78.12
2019-04-26T11:03:04.421Z,79.24
2019-04-26T11:04:02.018Z,80.29
2019-04-26T11:05:02.006Z,80.29
2019-04-26T11:06:02.004Z,80.74
2019-04-26T11:07:03.422Z,80.19
2019-04-26T11:08:02.000Z,81.01
2019-04-26T11:09:01.952Z,81.31
2019-04-26T11:10:03.002Z,80.16
2019-04-26T11:11:01.991Z,80.50
2019-04-26T11:12:01.923Z,80.29
2019-04-26T11:13:02.984Z,79.95
2019-04-26T11:14:01.928Z,80.29
2019-04-26T11:15:01.917Z,79.03
2019-04-26T11:16:02.388Z,80.56
2019-04-26T11:17:01.894Z,80.11
2019-04-26T11:18:01.874Z,79.50
2019-04-26T11:19:03.579Z,78.83
2019-04-26T11:20:02.066Z,79.00
2019-04-26T11:21:01.815Z,79.10
2019-04-26T11:22:07.458Z,77.74
2019-04-26T11:23:01.816Z,78.28
2019-04-26T11:24:01.794Z,78.08
2019-04-26T11:25:01.875Z,77.23
2019-04-26T11:26:02.929Z,77.51
2019-04-26T11:27:05.296Z,77.91
2019-04-26T11:28:02.756Z,77.78
2019-04-26T11:29:21.465Z,77.98
2019-04-26T11:30:11.090Z,76.96
2019-04-26T11:31:02.841Z,77.98
2019-04-26T11:32:02.755Z,78.19
2019-04-26T11:33:01.681Z,78.28
2019-04-26T11:34:05.355Z,78.19
2019-04-26T11:35:01.805Z,78.28
2019-04-26T11:36:03.392Z,77.37
2019-04-26T11:37:02.706Z,76.90
2019-04-26T11:38:01.692Z,77.61
2019-04-26T11:39:05.620Z,77.26
2019-04-26T11:40:02.618Z,78.32
2019-04-26T11:41:06.418Z,78.19
2019-04-26T11:42:02.589Z,77.23
2019-04-26T11:43:01.577Z,77.03
2019-04-26T11:44:02.508Z,75.70
2019-04-26T11:45:06.479Z,76.42
2019-04-26T11:46:04.480Z,77.33
2019-04-26T11:47:03.251Z,76.62
2019-04-26T11:48:03.279Z,77.26
2019-04-26T11:49:03.175Z,77.09
2019-04-26T11:50:01.610Z,75.67
2019-04-26T11:51:01.487Z,75.63
2019-04-26T11:52:02.745Z,74.18
2019-04-26T11:53:01.466Z,74.58
2019-04-26T11:54:05.449Z,73.67
2019-04-26T11:55:01.446Z,73.70
2019-04-26T11:56:04.648Z,74.62
2019-04-26T11:57:01.449Z,74.24
2019-04-26T11:58:01.448Z,74.18
2019-04-26T11:59:01.455Z,73.30
2019-04-26T12:00:05.401Z,71.84
2019-04-26T12:01:02.369Z,72.52
2019-04-26T12:02:01.372Z,71.60
2019-04-26T12:03:01.409Z,71.50
2019-04-26T12:04:02.011Z,73.22
2019-04-26T12:05:01.333Z,72.01
2019-04-26T12:06:01.405Z,70.62
2019-04-26T12:07:01.380Z,69.84
2019-04-26T12:08:01.301Z,68.60
2019-04-26T12:09:03.107Z,68.87
2019-04-26T12:10:01.441Z,68.96
2019-04-26T12:11:01.313Z,69.60
2019-04-26T12:12:04.941Z,69.54
2019-04-26T12:13:05.957Z,70.99
2019-04-26T12:14:04.013Z,73.36
2019-04-26T12:15:04.035Z,72.55
2019-04-26T12:16:02.231Z,71.57
2019-04-26T12:17:01.390Z,72.99
2019-04-26T12:18:01.234Z,72.96
2019-04-26T12:19:01.177Z,72.31
2019-04-26T12:20:02.355Z,71.26
2019-04-26T12:21:02.114Z,71.84
2019-04-26T12:22:04.181Z,71.67
2019-04-26T12:23:01.138Z,69.40
2019-04-26T12:24:01.124Z,68.35
2019-04-26T12:25:03.381Z,68.12
2019-04-26T12:26:02.099Z,68.89
2019-04-26T12:27:01.124Z,70.14
2019-04-26T12:28:01.962Z,70.38
2019-04-26T12:29:01.099Z,69.81
2019-04-26T12:30:01.078Z,68.87
2019-04-26T12:31:01.042Z,67.72
2019-04-26T12:32:01.049Z,68.87
2019-04-26T12:33:01.031Z,67.82
2019-04-26T12:34:01.051Z,67.58
2019-04-26T12:35:02.015Z,66.37
2019-04-26T12:36:01.023Z,68.90
2019-04-26T12:37:00.999Z,69.68
2019-04-26T12:38:00.968Z,68.46
2019-04-26T12:39:02.155Z,68.08
2019-04-26T12:40:00.972Z,68.62
2019-04-26T12:41:00.944Z,69.64
2019-04-26T12:42:00.984Z,70.55
2019-04-26T12:43:00.910Z,70.01
2019-04-26T12:44:03.340Z,68.43
2019-04-26T12:45:00.979Z,67.78
2019-04-26T12:46:00.884Z,68.93
2019-04-26T12:47:03.365Z,69.87
2019-04-26T12:48:00.925Z,69.64
2019-04-26T12:49:00.850Z,69.47
2019-04-26T12:50:00.857Z,69.74
2019-04-26T12:51:00.961Z,68.35
2019-04-26T12:52:00.833Z,67.95
2019-04-26T12:53:00.811Z,68.05
2019-04-26T12:54:03.719Z,68.05
2019-04-26T12:55:01.777Z,68.73
2019-04-26T12:56:00.873Z,69.57
2019-04-26T12:57:01.585Z,69.57
2019-04-26T12:58:00.741Z,70.92
2019-04-26T12:59:00.744Z,70.59
2019-04-26T13:00:01.946Z,70.48
2019-04-26T13:01:02.655Z,70.59
2019-04-26T13:02:05.726Z,69.67
2019-04-26T13:03:01.685Z,70.01
2019-04-26T13:04:02.636Z,71.03
2019-04-26T13:05:00.723Z,71.33
2019-04-26T13:06:00.710Z,70.35
2019-04-26T13:07:02.290Z,68.32